This is the latest recevied weather packets stored in our database for station/object KD8PH. If no packets are shown the sender has not sent any weather packets the latest 10 day(s).
| Time | Temp. | Humidity | Pressure | Rain* | Wind** | Luminosity | Snow |
|---|---|---|---|---|---|---|---|
| 1777979737 | 15.56° C | 76% | 1011.9 hPa | 0 mm | - | - | - |
| 1777979141 | 16.11° C | 74% | 1011.8 hPa | 0 mm | - | - | - |
| 1777978549 | 16.11° C | 73% | 1011.8 hPa | 0 mm | - | - | - |
| 1777977946 | 16.11° C | 72% | 1011.7 hPa | 0 mm | - | - | - |
| 1777977343 | 16.11° C | 72% | 1011.5 hPa | 0 mm | - | - | - |
| 1777976745 | 16.11° C | 72% | 1011.4 hPa | 0 mm | - | - | - |
| 1777976152 | 16.11° C | 72% | 1011.3 hPa | 0 mm | - | - | - |
| 1777975544 | 16.11° C | 71% | 1011.3 hPa | 0 mm | - | - | - |
| 1777974944 | 16.11° C | 72% | 1011.4 hPa | 0 mm | - | - | - |
| 1777974340 | 16.11° C | 71% | 1011.5 hPa | 0 mm | - | - | - |
| 1777973741 | 16.11° C | 72% | 1011.5 hPa | 0 mm | - | - | - |
| 1777973144 | 16.11° C | 72% | 1011.5 hPa | 0 mm | - | - | - |
| 1777972537 | 16.67° C | 70% | 1011.6 hPa | 0 mm | - | - | - |
| 1777971934 | 16.11° C | 72% | 1011.6 hPa | 0 mm | - | - | - |
| 1777971343 | 15.56° C | 77% | 1011.6 hPa | 0 mm | - | - | - |
| 1777970743 | 14.44° C | 84% | 1011.5 hPa | 0 mm | - | - | - |
| 1777970142 | 12.78° C | 88% | 1011.6 hPa | 0 mm | - | - | - |
| 1777969540 | 12.78° C | 88% | 1011.7 hPa | 0 mm | - | - | - |
| 1777968945 | 12.78° C | 87% | 1011.8 hPa | 0 mm | - | - | - |
| 1777968334 | 12.78° C | 87% | 1011.9 hPa | 0 mm | - | - | - |
| 1777967741 | 13.33° C | 86% | 1012 hPa | 0 mm | - | - | - |
| 1777967160 | 13.33° C | 86% | 1012 hPa | 0 mm | - | - | - |
| 1777966554 | 13.33° C | 87% | 1011.9 hPa | 0 mm | - | - | - |
| 1777965946 | 13.33° C | 85% | 1011.8 hPa | 0 mm | - | - | - |
| 1777965343 | 13.33° C | 85% | 1011.6 hPa | 0 mm | - | - | - |
* Rain latest hour (hover to see other rain measurements)
** Current wind speed in m/s (hover to see current wind gust speed)